createdAt,value
2022-11-01T00:01:41.185Z,8.77
2022-11-01T00:04:08.865Z,11.40
2022-11-01T00:06:36.345Z,18.48
2022-11-01T00:09:04.133Z,15.65
2022-11-01T00:11:31.285Z,11.45
2022-11-01T00:13:58.717Z,8.35
2022-11-01T00:16:26.254Z,9.70
2022-11-01T00:18:53.414Z,6.72
2022-11-01T00:21:20.956Z,8.57
2022-11-01T00:23:48.404Z,11.43
2022-11-01T00:26:21.988Z,9.45
2022-11-01T00:28:50.449Z,11.38
2022-11-01T00:31:19.333Z,11.38
2022-11-01T00:33:46.638Z,15.45
2022-11-01T00:36:14.535Z,8.10
2022-11-01T00:38:41.695Z,7.82
2022-11-01T00:41:09.371Z,7.72
2022-11-01T00:43:36.564Z,16.35
2022-11-01T00:46:04.640Z,7.80
2022-11-01T00:48:31.973Z,12.65
2022-11-01T00:50:59.036Z,16.58
2022-11-01T00:53:26.096Z,9.75
2022-11-01T00:55:53.393Z,8.25
2022-11-01T00:58:20.502Z,10.02
2022-11-01T01:00:47.793Z,7.57
2022-11-01T01:03:15.073Z,10.02
2022-11-01T01:05:42.137Z,11.73
2022-11-01T01:08:09.343Z,8.63
2022-11-01T01:10:36.435Z,15.00
2022-11-01T01:13:04.159Z,12.10
2022-11-01T01:15:31.622Z,7.25
2022-11-01T01:17:58.961Z,9.07
2022-11-01T01:20:26.613Z,9.50
2022-11-01T01:22:53.658Z,8.48
2022-11-01T01:25:20.982Z,14.55
2022-11-01T01:27:48.100Z,13.20
2022-11-01T01:30:15.679Z,12.98
2022-11-01T01:32:43.374Z,5.97
2022-11-01T01:35:10.723Z,11.13
2022-11-01T01:37:37.948Z,12.25
2022-11-01T01:40:06.557Z,11.43
2022-11-01T01:42:41.724Z,9.97
2022-11-01T01:45:31.257Z,7.43
2022-11-01T01:48:22.459Z,10.63
2022-11-01T01:50:57.182Z,9.18
2022-11-01T01:53:30.109Z,9.52
2022-11-01T01:56:03.282Z,12.07
2022-11-01T01:58:54.857Z,7.15
2022-11-01T02:01:22.105Z,12.65
2022-11-01T02:03:49.820Z,7.10
2022-11-01T02:06:18.895Z,8.93
2022-11-01T02:08:52.335Z,11.73
2022-11-01T02:11:20.680Z,8.52
2022-11-01T02:13:48.193Z,9.48
2022-11-01T02:16:34.048Z,10.95
2022-11-01T02:19:19.718Z,5.30
2022-11-01T02:21:54.654Z,10.88
2022-11-01T02:24:30.810Z,10.60
2022-11-01T02:27:09.009Z,9.77
2022-11-01T02:29:45.545Z,6.50
2022-11-01T02:32:31.241Z,9.25
2022-11-01T02:35:20.138Z,9.88
2022-11-01T02:37:55.632Z,8.63
2022-11-01T02:40:28.766Z,7.70
2022-11-01T02:43:07.903Z,8.43
2022-11-01T02:45:39.683Z,10.65
2022-11-01T02:48:07.000Z,6.80
2022-11-01T02:50:42.351Z,7.97
2022-11-01T02:53:10.065Z,8.13
2022-11-01T02:55:37.177Z,13.77
2022-11-01T02:58:16.200Z,7.78
2022-11-01T03:00:44.463Z,10.02
2022-11-01T03:03:28.509Z,11.77
2022-11-01T03:06:02.650Z,7.10
2022-11-01T03:08:44.720Z,10.98
2022-11-01T03:11:20.761Z,10.52
2022-11-01T03:13:52.389Z,7.82
2022-11-01T03:16:27.375Z,8.45
2022-11-01T03:19:06.372Z,8.48
2022-11-01T03:21:46.525Z,7.03
2022-11-01T03:24:26.988Z,11.52
2022-11-01T03:27:10.497Z,6.93
2022-11-01T03:29:39.563Z,6.07
2022-11-01T03:32:07.546Z,6.00
2022-11-01T03:34:37.382Z,8.10
2022-11-01T03:37:09.033Z,7.07
2022-11-01T03:39:42.793Z,10.27
2022-11-01T03:42:15.075Z,13.15
2022-11-01T03:44:46.669Z,5.57
2022-11-01T03:47:15.159Z,7.47
2022-11-01T03:49:42.224Z,10.00
2022-11-01T03:52:09.361Z,9.80
2022-11-01T03:54:36.413Z,5.93
2022-11-01T03:57:03.551Z,6.15
2022-11-01T03:59:30.673Z,7.65
2022-11-01T04:01:57.953Z,5.97
2022-11-01T04:04:25.112Z,5.03
2022-11-01T04:06:52.238Z,4.82
2022-11-01T04:09:19.269Z,5.93
2022-11-01T04:11:46.339Z,5.55
2022-11-01T04:14:31.721Z,5.53
2022-11-01T04:17:17.169Z,8.35
2022-11-01T04:20:02.486Z,6.82
2022-11-01T04:22:29.572Z,9.57
2022-11-01T04:24:56.621Z,5.88
2022-11-01T04:27:23.681Z,4.65
2022-11-01T04:29:50.760Z,9.40
2022-11-01T04:32:17.821Z,8.52
2022-11-01T04:34:45.047Z,12.18
2022-11-01T04:37:12.383Z,6.50
2022-11-01T04:39:39.569Z,9.82
2022-11-01T04:42:06.677Z,7.63
2022-11-01T04:44:33.866Z,5.15
2022-11-01T04:47:00.943Z,5.32
2022-11-01T04:49:27.983Z,5.53
2022-11-01T04:51:55.023Z,7.85
2022-11-01T04:54:22.118Z,9.70
2022-11-01T04:56:49.223Z,9.45
2022-11-01T04:59:16.280Z,4.05
2022-11-01T05:01:45.124Z,11.43
2022-11-01T05:04:12.356Z,4.15
2022-11-01T05:06:39.513Z,6.85
2022-11-01T05:09:06.590Z,8.40
2022-11-01T05:11:33.775Z,8.27
2022-11-01T05:14:00.818Z,9.65
2022-11-01T05:16:27.876Z,6.07
2022-11-01T05:18:54.919Z,9.32
2022-11-01T05:21:21.978Z,7.55
2022-11-01T05:23:49.109Z,8.75
2022-11-01T05:26:16.233Z,6.18
2022-11-01T05:28:43.361Z,7.72
2022-11-01T05:31:10.876Z,6.20
2022-11-01T05:33:37.982Z,6.35
2022-11-01T05:36:05.281Z,9.10
2022-11-01T05:38:32.431Z,4.88
2022-11-01T05:41:02.324Z,7.60
2022-11-01T05:43:29.579Z,6.88
2022-11-01T05:45:56.657Z,16.60
2022-11-01T05:48:23.761Z,8.25
2022-11-01T05:50:50.854Z,11.98
2022-11-01T05:53:17.923Z,6.60
2022-11-01T05:55:44.959Z,9.65
2022-11-01T05:58:12.092Z,8.43
2022-11-01T06:00:39.274Z,7.50
2022-11-01T06:03:07.176Z,11.55
2022-11-01T06:05:34.711Z,8.63
2022-11-01T06:08:02.382Z,7.47
2022-11-01T06:10:30.239Z,7.22
2022-11-01T06:12:57.673Z,11.23
2022-11-01T06:15:24.975Z,4.32
2022-11-01T06:17:57.279Z,5.95
2022-11-01T06:20:29.519Z,3.75
2022-11-01T06:22:57.921Z,9.68
2022-11-01T06:25:27.956Z,7.57
2022-11-01T06:27:55.035Z,10.88
2022-11-01T06:30:22.141Z,7.70
2022-11-01T06:32:49.196Z,6.60
2022-11-01T06:35:16.299Z,6.13
2022-11-01T06:37:43.404Z,6.82
2022-11-01T06:40:12.909Z,5.30
2022-11-01T06:42:45.370Z,7.53
2022-11-01T06:45:14.523Z,4.55
2022-11-01T06:47:46.299Z,8.45
2022-11-01T06:50:13.443Z,4.28
2022-11-01T06:52:40.476Z,6.25
2022-11-01T06:55:08.038Z,4.13
2022-11-01T06:57:35.076Z,3.00
2022-11-01T07:00:02.285Z,4.80
2022-11-01T07:02:30.059Z,2.95
2022-11-01T07:04:57.321Z,3.00
2022-11-01T07:07:24.376Z,2.28
2022-11-01T07:09:51.482Z,4.03
2022-11-01T07:12:18.743Z,6.05
2022-11-01T07:14:45.839Z,4.75
2022-11-01T07:17:12.899Z,2.50
2022-11-01T07:19:39.951Z,4.18
2022-11-01T07:22:08.436Z,8.75
2022-11-01T07:24:35.451Z,6.63
2022-11-01T07:27:02.496Z,6.80
2022-11-01T07:29:29.606Z,4.72
2022-11-01T07:31:56.779Z,2.78
2022-11-01T07:34:23.953Z,6.72
2022-11-01T07:36:53.982Z,5.78
2022-11-01T07:39:21.050Z,4.75
2022-11-01T07:41:48.163Z,8.77
2022-11-01T07:44:15.213Z,6.40
2022-11-01T07:46:42.273Z,3.20
2022-11-01T07:49:09.846Z,2.40
2022-11-01T07:51:37.011Z,5.53
2022-11-01T07:54:04.267Z,10.52
2022-11-01T07:56:31.306Z,4.53
2022-11-01T07:58:58.395Z,3.78
2022-11-01T08:01:25.569Z,6.97
2022-11-01T08:03:52.745Z,5.40
2022-11-01T08:08:49.085Z,1.95
2022-11-01T08:11:16.131Z,3.42
2022-11-01T08:13:43.230Z,1.77
2022-11-01T08:16:10.264Z,7.07
2022-11-01T08:18:37.337Z,5.38
2022-11-01T08:21:04.579Z,5.30
2022-11-01T08:23:31.701Z,2.42
2022-11-01T08:25:58.752Z,5.05
2022-11-01T08:28:28.392Z,6.15
2022-11-01T08:30:55.449Z,2.95
2022-11-01T08:33:22.614Z,1.65
2022-11-01T08:35:50.875Z,6.40
2022-11-01T08:38:18.946Z,4.10
2022-11-01T08:40:46.004Z,7.05
2022-11-01T08:43:13.071Z,4.70
2022-11-01T08:45:40.355Z,8.27
2022-11-01T08:48:09.329Z,5.07
2022-11-01T08:50:36.426Z,7.35
2022-11-01T08:53:14.435Z,2.45
2022-11-01T08:55:41.969Z,1.98
2022-11-01T08:58:09.561Z,3.42
2022-11-01T09:00:36.946Z,2.80
2022-11-01T09:03:04.339Z,3.53
2022-11-01T09:05:31.670Z,5.00
2022-11-01T09:08:00.279Z,5.57
2022-11-01T09:10:29.134Z,4.22
2022-11-01T09:12:57.829Z,8.73
2022-11-01T09:15:25.178Z,3.80
2022-11-01T09:17:53.025Z,1.38
2022-11-01T09:20:20.188Z,11.23
2022-11-01T09:22:51.243Z,5.68
2022-11-01T09:25:18.355Z,2.65
2022-11-01T09:27:45.456Z,4.28
2022-11-01T09:30:12.770Z,5.05
2022-11-01T09:32:39.856Z,4.68
2022-11-01T09:35:07.446Z,4.43
2022-11-01T09:37:34.666Z,4.50
2022-11-01T09:40:03.277Z,4.50
2022-11-01T09:42:39.740Z,8.27
2022-11-01T09:45:19.213Z,4.00
2022-11-01T09:50:25.279Z,4.20
2022-11-01T09:52:54.937Z,3.67
2022-11-01T09:55:30.979Z,7.22
2022-11-01T09:58:06.725Z,8.48
2022-11-01T10:00:39.088Z,4.35
2022-11-01T10:03:33.447Z,8.15
2022-11-01T10:06:19.295Z,9.48
2022-11-01T10:08:46.718Z,8.43
2022-11-01T10:11:39.659Z,7.93
2022-11-01T10:14:23.193Z,4.72
2022-11-01T10:17:03.642Z,8.88
2022-11-01T10:19:35.268Z,10.02
2022-11-01T10:22:15.701Z,9.38
2022-11-01T10:24:52.530Z,10.95
2022-11-01T10:27:26.691Z,6.40
2022-11-01T10:30:04.334Z,9.30
2022-11-01T10:32:35.068Z,9.60
2022-11-01T10:35:10.119Z,4.97
2022-11-01T10:38:11.027Z,5.57
2022-11-01T10:40:47.895Z,6.75
2022-11-01T10:43:19.446Z,7.60
2022-11-01T10:45:51.267Z,11.18
2022-11-01T10:48:35.649Z,15.77
2022-11-01T10:51:06.293Z,3.80
2022-11-01T10:53:55.515Z,8.07
2022-11-01T10:56:29.718Z,6.38
2022-11-01T10:59:16.843Z,5.30
2022-11-01T11:01:45.094Z,6.57
2022-11-01T11:04:15.710Z,7.55
2022-11-01T11:06:43.488Z,8.40
2022-11-01T11:09:26.683Z,9.80
2022-11-01T11:11:59.952Z,10.02
2022-11-01T11:14:31.591Z,9.70
2022-11-01T11:17:00.048Z,6.38
2022-11-01T11:19:29.750Z,7.60
2022-11-01T11:21:58.973Z,5.70
2022-11-01T11:24:28.682Z,9.15
2022-11-01T11:26:57.379Z,9.68
2022-11-01T11:29:40.313Z,7.30
2022-11-01T11:32:18.892Z,6.18
2022-11-01T11:35:13.186Z,7.93
2022-11-01T11:37:49.967Z,7.60
2022-11-01T11:40:17.224Z,6.47
2022-11-01T11:42:45.889Z,6.43
2022-11-01T11:45:30.612Z,8.90
2022-11-01T11:48:15.548Z,10.82
2022-11-01T11:50:43.423Z,10.48
2022-11-01T11:53:24.857Z,6.32
2022-11-01T11:56:06.549Z,13.55
2022-11-01T11:58:38.257Z,8.13
2022-11-01T12:01:08.355Z,8.35
2022-11-01T12:03:56.839Z,7.40
2022-11-01T12:06:27.153Z,5.82
2022-11-01T12:08:59.288Z,6.65
2022-11-01T12:11:40.240Z,6.57
2022-11-01T12:14:21.708Z,6.32
2022-11-01T12:16:49.489Z,13.88
2022-11-01T12:19:27.466Z,6.90
2022-11-01T12:21:57.070Z,7.88
2022-11-01T12:24:32.490Z,16.92
2022-11-01T12:27:03.969Z,10.85
2022-11-01T12:30:11.405Z,4.28
2022-11-01T12:32:50.681Z,16.30
2022-11-01T12:35:23.436Z,5.85
2022-11-01T12:38:08.388Z,8.23
2022-11-01T12:40:42.155Z,15.88
2022-11-01T12:43:15.057Z,9.15
2022-11-01T12:45:52.620Z,8.15
2022-11-01T12:48:25.699Z,7.85
2022-11-01T12:51:03.487Z,11.82
2022-11-01T12:53:44.286Z,7.55
2022-11-01T12:56:12.019Z,5.70
2022-11-01T12:58:39.221Z,9.85
2022-11-01T13:01:28.172Z,11.63
2022-11-01T13:04:25.472Z,8.10
2022-11-01T13:10:08.440Z,8.73
2022-11-01T13:12:39.102Z,6.68
2022-11-01T13:15:16.873Z,6.93
2022-11-01T13:17:52.749Z,6.93
2022-11-01T13:20:59.985Z,10.98
2022-11-01T13:23:27.012Z,6.38
2022-11-01T13:26:07.920Z,8.38
2022-11-01T13:28:47.355Z,7.40
2022-11-01T13:34:00.985Z,8.90
2022-11-01T13:36:53.701Z,10.80
2022-11-01T13:39:33.971Z,10.57
2022-11-01T13:42:12.871Z,8.43
2022-11-01T13:44:47.640Z,11.23
2022-11-01T13:47:20.460Z,3.92
2022-11-01T13:49:53.103Z,7.55
2022-11-01T13:52:26.892Z,7.20
2022-11-01T13:54:58.129Z,19.02
2022-11-01T13:57:27.525Z,13.60
2022-11-01T13:59:55.980Z,12.40
2022-11-01T14:02:23.457Z,12.63
2022-11-01T14:05:11.120Z,7.65
2022-11-01T14:07:44.254Z,8.50
2022-11-01T14:10:17.380Z,14.60
2022-11-01T14:12:48.198Z,5.35
2022-11-01T14:15:22.115Z,9.80
2022-11-01T14:17:52.517Z,10.10
2022-11-01T14:20:25.606Z,13.75
2022-11-01T14:22:54.234Z,6.85
2022-11-01T14:28:17.771Z,8.65
2022-11-01T14:30:49.317Z,9.27
2022-11-01T14:33:21.991Z,11.30
2022-11-01T14:35:55.829Z,14.27
2022-11-01T14:38:35.537Z,8.15
2022-11-01T14:41:04.310Z,6.70
2022-11-01T14:43:35.881Z,17.27
2022-11-01T14:46:09.565Z,7.32
2022-11-01T14:48:46.351Z,10.18
2022-11-01T14:51:34.749Z,11.18
2022-11-01T14:54:11.572Z,15.32
2022-11-01T14:56:41.279Z,28.33
2022-11-01T14:59:14.439Z,8.50
2022-11-01T15:01:47.182Z,18.40
2022-11-01T15:04:29.441Z,56.10
2022-11-01T15:06:58.635Z,1999.90
2022-11-01T15:09:30.962Z,1999.90
2022-11-01T15:12:25.256Z,1999.90
2022-11-01T15:14:55.132Z,1999.90
2022-11-01T15:17:29.144Z,1999.90
2022-11-01T15:19:57.285Z,1999.90
2022-11-01T15:22:28.077Z,1999.90
2022-11-01T15:24:58.627Z,1999.90
2022-11-01T15:27:36.661Z,1504.90
2022-11-01T15:30:04.782Z,1999.90
2022-11-01T15:32:34.749Z,56.55
2022-11-01T15:35:18.898Z,1999.90
2022-11-01T15:37:50.926Z,8.20
2022-11-01T15:40:31.387Z,10.38
2022-11-01T15:43:00.487Z,11.82
2022-11-01T15:45:30.815Z,5.85
2022-11-01T15:48:02.125Z,6.75
2022-11-01T15:50:35.020Z,8.15
2022-11-01T15:53:04.436Z,10.52
2022-11-01T15:55:36.074Z,14.13
2022-11-01T15:58:08.771Z,6.88
2022-11-01T16:00:43.091Z,8.23
2022-11-01T16:03:28.152Z,10.00
2022-11-01T16:06:00.629Z,6.47
2022-11-01T16:08:39.816Z,11.88
2022-11-01T16:11:07.414Z,6.63
2022-11-01T16:13:35.098Z,9.43
2022-11-01T16:16:12.801Z,11.30
2022-11-01T16:18:43.390Z,13.23
2022-11-01T16:21:20.226Z,6.60
2022-11-01T16:23:56.986Z,7.05
2022-11-01T16:26:24.514Z,11.70
2022-11-01T16:28:53.307Z,13.27
2022-11-01T16:31:28.369Z,7.57
2022-11-01T16:33:57.063Z,11.38
2022-11-01T16:36:35.645Z,9.03
2022-11-01T16:39:25.028Z,11.03
2022-11-01T16:44:20.780Z,12.10
2022-11-01T16:46:48.053Z,9.88
2022-11-01T16:49:15.050Z,10.40
2022-11-01T16:51:42.132Z,6.63
2022-11-01T16:54:15.561Z,12.75
2022-11-01T16:56:49.268Z,16.77
2022-11-01T16:59:24.995Z,5.32
2022-11-01T17:01:54.935Z,13.20
2022-11-01T17:04:22.650Z,10.38
2022-11-01T17:06:50.561Z,10.40
2022-11-01T17:09:19.515Z,11.90
2022-11-01T17:11:51.172Z,9.85
2022-11-01T17:14:20.371Z,11.73
2022-11-01T17:16:49.453Z,9.23
2022-11-01T17:19:25.209Z,14.45
2022-11-01T17:21:52.884Z,8.20
2022-11-01T17:24:22.758Z,9.68
2022-11-01T17:26:51.239Z,9.43
2022-11-01T17:29:18.395Z,13.98
2022-11-01T17:31:45.523Z,11.65
2022-11-01T17:34:12.629Z,14.50
2022-11-01T17:36:44.921Z,13.18
2022-11-01T17:39:11.997Z,14.07
2022-11-01T17:41:39.383Z,9.98
2022-11-01T17:44:06.505Z,13.30
2022-11-01T17:46:33.627Z,15.48
2022-11-01T17:49:00.775Z,17.88
2022-11-01T17:51:27.813Z,12.30
2022-11-01T17:53:56.340Z,11.88
2022-11-01T17:56:24.215Z,8.05
2022-11-01T17:58:53.524Z,9.73
2022-11-01T18:01:21.658Z,7.43
2022-11-01T18:03:49.151Z,22.15
2022-11-01T18:06:16.931Z,4.70
2022-11-01T18:08:50.235Z,14.73
2022-11-01T18:11:33.211Z,8.90
2022-11-01T18:14:15.811Z,6.93
2022-11-01T18:16:49.132Z,7.85
2022-11-01T18:19:37.525Z,12.77
2022-11-01T18:22:21.375Z,12.55
2022-11-01T18:25:20.502Z,18.58
2022-11-01T18:27:47.598Z,17.00
2022-11-01T18:30:17.514Z,12.27
2022-11-01T18:33:04.842Z,11.10
2022-11-01T18:35:38.906Z,11.40
2022-11-01T18:38:30.310Z,9.13
2022-11-01T18:41:02.387Z,5.28
2022-11-01T18:43:34.898Z,9.07
2022-11-01T18:46:25.136Z,14.60
2022-11-01T18:48:59.434Z,13.43
2022-11-01T18:51:28.755Z,11.63
2022-11-01T18:54:12.526Z,9.82
2022-11-01T18:56:48.350Z,10.05
2022-11-01T18:59:26.122Z,17.95
2022-11-01T19:02:00.242Z,9.88
2022-11-01T19:04:31.144Z,8.10
2022-11-01T19:07:22.711Z,9.15
2022-11-01T19:09:52.103Z,9.15
2022-11-01T19:12:27.797Z,10.90
2022-11-01T19:15:02.186Z,12.45
2022-11-01T19:17:37.271Z,14.98
2022-11-01T19:20:20.645Z,14.68
2022-11-01T19:22:47.915Z,11.30
2022-11-01T19:25:20.448Z,15.18
2022-11-01T19:27:53.385Z,9.68
2022-11-01T19:30:24.705Z,10.00
2022-11-01T19:32:54.074Z,17.27
2022-11-01T19:35:22.663Z,11.00
2022-11-01T19:37:52.424Z,7.27
2022-11-01T19:40:32.532Z,16.83
2022-11-01T19:43:10.151Z,11.88
2022-11-01T19:45:43.892Z,15.90
2022-11-01T19:48:13.129Z,11.35
2022-11-01T19:50:42.024Z,8.60
2022-11-01T19:53:17.992Z,6.15
2022-11-01T19:55:59.899Z,14.20
2022-11-01T19:58:43.555Z,10.77
2022-11-01T20:01:17.019Z,8.20
2022-11-01T20:03:47.381Z,10.57
2022-11-01T20:06:30.308Z,5.55
2022-11-01T20:09:02.753Z,8.63
2022-11-01T20:11:33.590Z,17.80
2022-11-01T20:14:00.992Z,14.25
2022-11-01T20:16:28.272Z,15.45
2022-11-01T20:18:55.468Z,10.95
2022-11-01T20:21:22.513Z,14.20
2022-11-01T20:23:50.175Z,23.60
2022-11-01T20:26:17.328Z,6.35
2022-11-01T20:28:44.429Z,9.60
2022-11-01T20:31:11.559Z,12.05
2022-11-01T20:33:38.706Z,13.35
2022-11-01T20:36:10.983Z,10.95
2022-11-01T20:38:38.917Z,13.02
2022-11-01T20:41:06.263Z,12.18
2022-11-01T20:43:33.345Z,5.38
2022-11-01T20:46:00.458Z,10.23
2022-11-01T20:48:27.586Z,10.48
2022-11-01T20:50:54.872Z,12.52
2022-11-01T20:53:24.816Z,13.65
2022-11-01T20:55:55.806Z,8.90
2022-11-01T20:58:22.859Z,10.60
2022-11-01T21:00:51.507Z,11.38
2022-11-01T21:03:20.998Z,13.43
2022-11-01T21:08:27.924Z,12.15
2022-11-01T21:10:59.378Z,20.27
2022-11-01T21:13:33.902Z,12.02
2022-11-01T21:16:02.564Z,10.05
2022-11-01T21:18:37.223Z,14.87
2022-11-01T21:21:13.252Z,10.63
2022-11-01T21:23:42.947Z,8.27
2022-11-01T21:26:23.372Z,12.77
2022-11-01T21:28:54.400Z,10.65
2022-11-01T21:31:34.358Z,9.02
2022-11-01T21:34:10.445Z,13.75
2022-11-01T21:36:41.297Z,11.38
2022-11-01T21:39:17.058Z,11.07
2022-11-01T21:41:52.085Z,9.27
2022-11-01T21:44:38.723Z,13.43
2022-11-01T21:47:08.453Z,13.57
2022-11-01T21:49:36.615Z,8.07
2022-11-01T21:52:06.634Z,9.50
2022-11-01T21:54:37.243Z,11.80
2022-11-01T21:57:06.888Z,8.93
2022-11-01T21:59:34.241Z,45.03
2022-11-01T22:02:02.310Z,9.35
2022-11-01T22:04:31.236Z,14.20
2022-11-01T22:07:00.421Z,7.85
2022-11-01T22:09:27.827Z,13.95
2022-11-01T22:11:54.920Z,10.43
2022-11-01T22:14:22.441Z,15.48
2022-11-01T22:16:49.503Z,15.25
2022-11-01T22:19:16.609Z,9.48
2022-11-01T22:24:15.862Z,14.15
2022-11-01T22:26:42.942Z,5.70
2022-11-01T22:29:10.036Z,12.10
2022-11-01T22:31:37.092Z,17.85
2022-11-01T22:34:04.162Z,7.68
2022-11-01T22:36:37.491Z,9.30
2022-11-01T22:39:30.919Z,7.38
2022-11-01T22:41:58.007Z,11.38
2022-11-01T22:44:27.009Z,13.10
2022-11-01T22:46:58.934Z,10.03
2022-11-01T22:49:41.841Z,9.43
2022-11-01T22:52:15.715Z,9.10
2022-11-01T22:54:47.432Z,11.10
2022-11-01T22:57:17.879Z,9.77
2022-11-01T22:59:53.208Z,9.32
2022-11-01T23:02:31.549Z,8.30
2022-11-01T23:05:04.702Z,13.93
2022-11-01T23:07:39.397Z,7.47
2022-11-01T23:10:22.910Z,10.32
2022-11-01T23:13:15.598Z,12.60
2022-11-01T23:15:43.132Z,15.40
2022-11-01T23:18:16.993Z,9.93
2022-11-01T23:20:45.313Z,18.13
2022-11-01T23:23:19.023Z,9.18
2022-11-01T23:25:46.975Z,12.25
2022-11-01T23:28:14.911Z,8.13
2022-11-01T23:30:43.505Z,10.75
2022-11-01T23:33:17.017Z,11.52
2022-11-01T23:35:54.229Z,11.82
2022-11-01T23:38:29.793Z,11.10
2022-11-01T23:40:57.416Z,6.93
2022-11-01T23:43:32.916Z,11.43
2022-11-01T23:46:01.326Z,6.28
2022-11-01T23:48:29.099Z,9.95
2022-11-01T23:50:56.548Z,6.60
2022-11-01T23:53:41.367Z,10.77
2022-11-01T23:56:09.418Z,16.35
2022-11-01T23:58:37.754Z,13.77
